Terminal Aerodrome Forecast
Issued by NWS

Home | Current Version | Previous Version | Text Only | Print | Product List | Glossary On
Versions: 1 2 3 4 5 6 7 8 9 10 11 12 13 14 15 16 17 18 19 20 21 22 23 24
000
FTUS45 KREV 211720
TAFRNO
TAF
KRNO 211720Z 2118/2218 17008KT P6SM SCT050 BKN080
     FM211900 20016G26KT P6SM BKN060 BKN100
     FM212300 23015G28KT P6SM VCSH OVC040
     FM220600 26010KT P6SM BKN040 OVC060
     FM220900 VRB03KT P6SM SCT040 BKN060=

USA.gov is the U.S. government's official web portal to all federal, state and local government web resources and services.